Time;durP1;ratioP1;P1;durP2;ratioP2;P2;SDS_P1;SDS_P2;PMS_P1;PMS_P2;Temp;Humidity;BMP_temperature;BMP_pressure;BME280_temperature;BME280_humidity;BME280_pressure;Samples;Min_cycle;Max_cycle;Signal;HPM_P1;HPM_P2
2024/02/14 00:00:57;;;;;;;1.80;1.07;;;9.70;99.90;;;;;;5072938;28;20165;-69
2024/02/14 00:03:23;;;;;;;2.33;1.23;;;9.70;99.90;;;;;;5073061;28;20400;-69
2024/02/14 00:05:49;;;;;;;3.03;0.97;;;9.80;99.90;;;;;;5072813;28;20182;-69
2024/02/14 00:08:15;;;;;;;2.27;0.87;;;9.80;99.90;;;;;;5072890;28;20408;-69
2024/02/14 00:10:41;;;;;;;1.43;1.00;;;9.70;99.90;;;;;;5071968;28;20618;-69
2024/02/14 00:13:08;;;;;;;1.13;1.03;;;9.80;99.90;;;;;;5069430;28;20423;-69
2024/02/14 00:15:33;;;;;;;2.50;1.30;;;9.80;99.90;;;;;;5072314;28;20167;-69
2024/02/14 00:18:00;;;;;;;2.70;1.47;;;9.80;99.90;;;;;;5066701;28;20423;-69
2024/02/14 00:20:26;;;;;;;1.43;1.20;;;9.80;99.90;;;;;;5066481;28;20368;-70
2024/02/14 00:22:51;;;;;;;2.30;1.10;;;9.80;99.90;;;;;;5072747;28;20756;-69
2024/02/14 00:25:17;;;;;;;2.43;1.00;;;9.80;99.90;;;;;;5072620;28;20181;-70
2024/02/14 00:27:43;;;;;;;0.90;0.80;;;9.80;99.90;;;;;;5072439;28;20194;-69
2024/02/14 00:30:10;;;;;;;1.10;0.70;;;9.80;99.90;;;;;;5070979;28;20209;-69
2024/02/14 00:32:35;;;;;;;2.23;1.00;;;9.80;99.90;;;;;;5072362;28;20190;-69
2024/02/14 00:35:01;;;;;;;1.60;1.17;;;9.80;99.90;;;;;;5072426;28;20408;-69
2024/02/14 00:37:27;;;;;;;1.10;0.80;;;9.80;99.90;;;;;;5070855;28;20714;-69
2024/02/14 00:39:53;;;;;;;1.00;0.90;;;9.80;99.90;;;;;;5072244;28;20162;-70
2024/02/14 00:42:19;;;;;;;5.83;1.00;;;9.80;99.90;;;;;;5072174;28;20975;-70
2024/02/14 00:44:44;;;;;;;1.10;0.90;;;9.70;99.90;;;;;;5072293;28;20536;-69
2024/02/14 00:47:10;;;;;;;1.10;1.00;;;9.60;99.90;;;;;;5072249;28;20714;-69
2024/02/14 00:49:36;;;;;;;4.80;1.03;;;9.70;99.90;;;;;;5071919;28;20607;-69
2024/02/14 00:52:02;;;;;;;1.10;1.00;;;9.70;99.90;;;;;;5072002;28;20194;-69
2024/02/14 00:54:27;;;;;;;4.53;1.10;;;9.70;99.90;;;;;;5072188;28;20412;-69
2024/02/14 00:56:53;;;;;;;2.23;1.30;;;9.60;99.90;;;;;;5072116;28;20193;-70
2024/02/14 00:59:18;;;;;;;1.20;1.03;;;9.60;99.90;;;;;;5071946;28;20158;-70
2024/02/14 01:01:44;;;;;;;3.17;1.10;;;9.70;99.90;;;;;;5072121;28;20595;-70
2024/02/14 01:04:10;;;;;;;4.60;0.80;;;9.80;99.90;;;;;;5071794;28;20174;-69
2024/02/14 01:06:35;;;;;;;1.93;1.00;;;9.70;99.90;;;;;;5072107;28;20440;-70
2024/02/14 01:09:01;;;;;;;1.47;1.10;;;9.70;99.90;;;;;;5071867;28;20576;-70
2024/02/14 01:11:26;;;;;;;1.13;0.80;;;9.60;99.90;;;;;;5072223;28;20194;-69
2024/02/14 01:13:52;;;;;;;0.90;0.80;;;9.60;99.90;;;;;;5071868;28;20158;-69
2024/02/14 01:16:18;;;;;;;1.47;0.93;;;9.60;99.90;;;;;;5071916;28;20213;-69
2024/02/14 01:18:43;;;;;;;1.00;0.80;;;9.70;99.90;;;;;;5071797;28;20158;-69
2024/02/14 01:21:09;;;;;;;1.40;1.03;;;9.60;99.90;;;;;;5071779;28;20587;-69
2024/02/14 01:23:35;;;;;;;1.00;0.70;;;9.50;99.90;;;;;;5072001;28;20166;-69
2024/02/14 01:26:01;;;;;;;1.20;0.80;;;9.50;99.90;;;;;;5071716;28;20186;-70
2024/02/14 01:28:27;;;;;;;1.23;0.93;;;9.50;99.90;;;;;;5070713;28;20780;-70
2024/02/14 01:30:53;;;;;;;1.13;0.77;;;9.50;99.90;;;;;;5071494;28;20444;-71
2024/02/14 01:33:18;;;;;;;1.30;1.07;;;9.50;99.90;;;;;;5071718;28;20158;-69
2024/02/14 01:35:44;;;;;;;1.00;0.80;;;9.50;99.90;;;;;;5071617;28;20213;-70
2024/02/14 01:38:12;;;;;;;1.00;0.90;;;9.50;99.90;;;;;;5071744;28;20245;-70
2024/02/14 01:40:37;;;;;;;2.67;0.90;;;9.50;99.90;;;;;;5071414;28;20574;-70
2024/02/14 01:43:03;;;;;;;0.90;0.80;;;9.50;99.90;;;;;;5071641;28;20435;-69
2024/02/14 01:45:28;;;;;;;1.77;1.20;;;9.50;99.90;;;;;;5071588;28;20533;-70
2024/02/14 01:47:55;;;;;;;1.13;0.97;;;9.50;99.90;;;;;;5070479;28;20162;-70
2024/02/14 01:50:28;;;;;;;1.50;1.00;;;9.60;99.90;;;;;;5073105;28;20162;-69
2024/02/14 01:52:55;;;;;;;1.20;0.70;;;9.60;99.90;;;;;;5075453;28;20475;-69
2024/02/14 01:55:21;;;;;;;1.90;0.80;;;9.70;99.90;;;;;;5075590;28;20816;-70
2024/02/14 01:57:47;;;;;;;0.90;0.80;;;9.70;99.90;;;;;;5075413;28;20416;-69
2024/02/14 02:00:16;;;;;;;2.50;0.93;;;9.70;99.90;;;;;;5075202;28;20418;-70
2024/02/14 02:02:41;;;;;;;2.07;0.90;;;9.80;99.90;;;;;;5075369;28;20491;-70
2024/02/14 02:05:07;;;;;;;0.90;0.70;;;9.70;99.90;;;;;;5075397;28;20495;-69
2024/02/14 02:07:33;;;;;;;1.70;1.20;;;9.70;99.90;;;;;;5075522;28;20193;-70
2024/02/14 02:09:59;;;;;;;1.77;0.90;;;9.60;99.90;;;;;;5075042;28;20165;-70
2024/02/14 02:12:27;;;;;;;2.43;1.10;;;9.60;99.90;;;;;;5075180;28;20447;-70
2024/02/14 02:14:53;;;;;;;1.20;0.80;;;9.70;99.90;;;;;;5075204;28;20583;-70
2024/02/14 02:17:18;;;;;;;0.93;0.77;;;9.60;99.90;;;;;;5075017;28;20427;-69
2024/02/14 02:19:44;;;;;;;3.17;0.80;;;9.60;99.90;;;;;;5074850;28;20404;-70
2024/02/14 02:22:09;;;;;;;1.47;0.90;;;9.60;99.90;;;;;;5075066;28;20174;-70
2024/02/14 02:24:35;;;;;;;1.10;0.93;;;9.60;99.90;;;;;;5075019;28;20192;-70
2024/02/14 02:27:01;;;;;;;4.30;0.90;;;9.60;99.90;;;;;;5074921;28;20190;-69
2024/02/14 02:29:27;;;;;;;0.90;0.60;;;9.60;99.90;;;;;;5075118;28;20400;-70
2024/02/14 02:31:52;;;;;;;0.90;0.60;;;9.70;99.90;;;;;;5073603;28;20463;-70
2024/02/14 02:34:18;;;;;;;1.13;1.03;;;9.60;99.90;;;;;;5074973;28;20178;-70
2024/02/14 02:36:45;;;;;;;1.07;0.80;;;9.70;99.90;;;;;;5074677;28;20179;-70
2024/02/14 02:39:13;;;;;;;1.00;0.80;;;9.60;99.90;;;;;;5074556;28;20155;-70
2024/02/14 02:41:39;;;;;;;1.33;0.70;;;9.60;99.90;;;;;;5074673;28;20883;-69
2024/02/14 02:44:06;;;;;;;0.80;0.60;;;9.60;99.90;;;;;;5074544;28;20404;-70
2024/02/14 02:46:32;;;;;;;1.07;0.87;;;9.70;99.90;;;;;;5074506;28;20186;-70
2024/02/14 02:48:58;;;;;;;1.33;0.90;;;9.70;99.90;;;;;;5074558;28;20412;-70
2024/02/14 02:51:24;;;;;;;1.10;0.80;;;9.70;99.90;;;;;;5074481;28;20243;-69
2024/02/14 02:53:49;;;;;;;1.40;0.90;;;9.70;99.90;;;;;;5074338;28;20907;-70
2024/02/14 02:56:15;;;;;;;2.40;0.80;;;9.80;99.90;;;;;;5075043;28;20209;-69
2024/02/14 02:58:40;;;;;;;1.00;0.80;;;9.70;99.90;;;;;;5074265;28;20181;-70
2024/02/14 03:01:09;;;;;;;1.20;0.90;;;9.80;99.90;;;;;;5074058;28;20158;-69
2024/02/14 03:03:36;;;;;;;1.30;1.00;;;9.90;99.90;;;;;;5074299;28;20169;-69
2024/02/14 03:06:03;;;;;;;1.43;0.80;;;9.90;99.90;;;;;;5074187;28;20464;-69
2024/02/14 03:08:30;;;;;;;1.30;0.77;;;10.00;99.90;;;;;;5074199;28;20426;-69
2024/02/14 03:10:59;;;;;;;1.10;0.80;;;10.10;99.90;;;;;;5073790;28;20850;-70
2024/02/14 03:13:26;;;;;;;0.90;0.80;;;10.10;99.90;;;;;;5073941;28;20879;-70
2024/02/14 03:15:52;;;;;;;1.47;0.90;;;10.00;99.90;;;;;;5074039;28;20415;-69
2024/02/14 03:18:17;;;;;;;1.20;0.80;;;10.00;99.90;;;;;;5072790;28;20448;-70
2024/02/14 03:20:43;;;;;;;1.53;1.43;;;10.00;99.90;;;;;;5073774;28;20918;-70
2024/02/14 03:23:08;;;;;;;2.43;1.07;;;10.00;99.90;;;;;;5073960;28;20189;-70
2024/02/14 03:25:36;;;;;;;1.30;0.90;;;10.00;99.90;;;;;;5073853;28;20158;-70
2024/02/14 03:28:08;;;;;;;0.80;0.70;;;9.90;99.90;;;;;;5073808;28;20239;-70
2024/02/14 03:30:39;;;;;;;1.07;0.70;;;9.90;99.90;;;;;;5073566;28;20393;-70
2024/02/14 03:33:05;;;;;;;1.20;1.10;;;10.00;99.90;;;;;;5072485;28;20904;-70
2024/02/14 03:35:30;;;;;;;1.07;0.83;;;10.00;99.90;;;;;;5073717;28;20472;-69
2024/02/14 03:37:56;;;;;;;2.27;0.90;;;9.90;99.90;;;;;;5073694;28;20803;-70
2024/02/14 03:40:21;;;;;;;1.33;1.17;;;9.90;99.90;;;;;;5073335;28;20162;-70
2024/02/14 03:42:47;;;;;;;1.93;0.77;;;9.90;99.90;;;;;;5073567;28;20644;-70
2024/02/14 03:45:13;;;;;;;1.10;0.93;;;9.90;99.90;;;;;;5073460;28;20166;-70
2024/02/14 03:47:39;;;;;;;1.17;1.07;;;9.90;99.90;;;;;;5073406;28;20186;-70
2024/02/14 03:50:06;;;;;;;1.40;1.03;;;9.90;99.90;;;;;;5073136;28;20929;-70
2024/02/14 03:52:32;;;;;;;1.50;0.93;;;9.90;99.90;;;;;;5073520;28;20197;-70
2024/02/14 03:54:59;;;;;;;1.97;1.30;;;9.90;99.90;;;;;;5073286;28;20740;-70
2024/02/14 03:57:27;;;;;;;1.20;0.90;;;9.80;99.90;;;;;;5073219;28;20178;-70
2024/02/14 03:59:52;;;;;;;3.07;0.93;;;9.80;99.90;;;;;;5072932;28;20397;-70
2024/02/14 04:02:18;;;;;;;1.23;0.70;;;9.90;99.90;;;;;;5073138;28;20534;-70
2024/02/14 04:04:46;;;;;;;1.03;0.70;;;10.00;99.90;;;;;;5073167;28;20166;-70
2024/02/14 04:07:11;;;;;;;1.50;1.30;;;10.00;99.90;;;;;;5072993;28;20444;-70
2024/02/14 04:09:37;;;;;;;1.77;1.03;;;9.90;99.90;;;;;;5072723;28;20838;-70
2024/02/14 04:12:03;;;;;;;1.47;1.23;;;10.00;99.90;;;;;;5072605;28;20197;-70
2024/02/14 04:14:28;;;;;;;1.53;1.10;;;10.10;99.90;;;;;;5072695;28;20533;-70
2024/02/14 04:16:54;;;;;;;1.10;0.97;;;10.10;99.90;;;;;;5072804;28;20181;-70
2024/02/14 04:19:20;;;;;;;1.13;0.97;;;10.10;99.90;;;;;;5072595;28;20602;-70
2024/02/14 04:21:46;;;;;;;1.00;0.80;;;10.10;99.90;;;;;;5072754;28;20436;-70
2024/02/14 04:24:12;;;;;;;1.10;0.80;;;10.20;99.90;;;;;;5072769;28;20230;-70
2024/02/14 04:26:37;;;;;;;1.20;0.90;;;10.20;99.90;;;;;;5072731;28;20496;-70
2024/02/14 04:29:03;;;;;;;0.93;0.80;;;10.10;99.90;;;;;;5072389;28;20208;-70
2024/02/14 04:31:31;;;;;;;1.73;0.90;;;10.10;99.90;;;;;;5071268;28;20194;-71
2024/02/14 04:33:57;;;;;;;1.10;0.70;;;10.10;99.90;;;;;;5072525;28;20178;-70
2024/02/14 04:36:23;;;;;;;1.17;1.07;;;10.10;99.90;;;;;;5072474;28;20735;-70
2024/02/14 04:38:48;;;;;;;1.93;1.03;;;10.20;99.90;;;;;;5072403;28;20401;-71
2024/02/14 04:41:14;;;;;;;2.60;1.60;;;10.10;99.90;;;;;;5072201;28;20166;-70
2024/02/14 04:43:40;;;;;;;1.20;1.10;;;10.10;99.90;;;;;;5070992;28;20256;-70
2024/02/14 04:46:07;;;;;;;1.47;1.13;;;10.10;99.90;;;;;;5072264;28;20244;-70
2024/02/14 04:48:35;;;;;;;1.47;1.00;;;10.10;99.90;;;;;;5072356;28;20162;-70
2024/02/14 04:51:01;;;;;;;2.03;1.30;;;10.10;99.90;;;;;;5071987;28;20455;-70
2024/02/14 04:53:27;;;;;;;1.20;0.90;;;10.00;99.90;;;;;;5072064;28;20424;-70
2024/02/14 04:55:53;;;;;;;1.00;0.90;;;9.90;99.90;;;;;;5072146;28;20474;-70
2024/02/14 04:58:19;;;;;;;0.90;0.80;;;9.90;99.90;;;;;;5072118;28;20404;-70
2024/02/14 05:00:45;;;;;;;1.30;1.10;;;9.80;99.90;;;;;;5070924;28;20412;-71
2024/02/14 05:03:10;;;;;;;1.30;0.80;;;9.80;99.90;;;;;;5072042;28;20401;-70
2024/02/14 05:05:36;;;;;;;1.17;0.90;;;9.80;99.90;;;;;;5072258;28;20219;-70
2024/02/14 05:08:02;;;;;;;1.10;0.80;;;9.80;99.90;;;;;;5072090;28;20173;-70
2024/02/14 05:10:28;;;;;;;1.40;0.77;;;9.80;99.90;;;;;;5071778;28;20162;-70
2024/02/14 05:12:54;;;;;;;1.73;0.90;;;9.80;99.90;;;;;;5071822;28;20455;-70
2024/02/14 05:15:19;;;;;;;1.23;0.87;;;9.80;99.90;;;;;;5071992;28;20656;-70
2024/02/14 05:17:45;;;;;;;0.97;0.87;;;9.90;99.90;;;;;;5071952;28;20423;-70
2024/02/14 05:20:11;;;;;;;0.90;0.80;;;9.90;99.90;;;;;;5071708;28;20159;-70
2024/02/14 05:22:37;;;;;;;3.20;1.00;;;10.00;99.90;;;;;;5071811;28;20198;-70
2024/02/14 05:25:04;;;;;;;1.67;0.73;;;10.10;99.90;;;;;;5070998;28;20393;-70
2024/02/14 05:27:30;;;;;;;0.80;0.80;;;10.10;99.90;;;;;;5071637;28;20428;-70
2024/02/14 05:29:55;;;;;;;1.13;0.80;;;10.10;99.90;;;;;;5071580;28;20487;-70
2024/02/14 05:32:21;;;;;;;1.23;0.90;;;10.10;99.90;;;;;;5071707;28;20562;-70
2024/02/14 05:34:46;;;;;;;0.90;0.70;;;10.20;99.90;;;;;;5071747;28;20162;-70
2024/02/14 05:37:12;;;;;;;3.17;0.93;;;10.20;99.90;;;;;;5071599;28;20649;-70
2024/02/14 05:39:38;;;;;;;1.53;0.97;;;10.10;99.90;;;;;;5071626;28;20173;-70
2024/02/14 05:42:05;;;;;;;2.07;1.00;;;10.10;99.90;;;;;;5071656;28;20251;-70
2024/02/14 05:44:31;;;;;;;1.40;0.90;;;10.20;99.90;;;;;;5071682;28;20401;-71
2024/02/14 05:46:56;;;;;;;2.40;2.00;;;10.10;99.90;;;;;;5071519;28;20799;-70
2024/02/14 05:49:22;;;;;;;1.30;0.80;;;10.10;99.90;;;;;;5071371;28;20574;-70
2024/02/14 05:51:48;;;;;;;1.30;1.10;;;10.00;99.90;;;;;;5071339;28;20288;-70
2024/02/14 05:54:13;;;;;;;1.37;1.00;;;10.00;99.90;;;;;;5071799;28;20235;-70
2024/02/14 05:56:39;;;;;;;1.20;0.80;;;9.90;99.90;;;;;;5070185;28;20284;-70
2024/02/14 05:59:04;;;;;;;0.93;0.83;;;10.00;99.90;;;;;;5071310;28;20571;-70
2024/02/14 06:01:30;;;;;;;0.80;0.70;;;9.90;99.90;;;;;;5071522;28;20205;-70
2024/02/14 06:03:55;;;;;;;1.30;0.90;;;10.00;99.90;;;;;;5071425;28;20181;-70
2024/02/14 06:06:21;;;;;;;2.43;1.17;;;10.00;99.90;;;;;;5070015;28;20186;-70
2024/02/14 06:08:47;;;;;;;1.00;0.90;;;10.10;99.90;;;;;;5071456;28;20192;-70
2024/02/14 06:11:14;;;;;;;1.40;1.23;;;10.10;99.90;;;;;;5071019;28;20197;-70
2024/02/14 06:13:39;;;;;;;0.90;0.80;;;10.00;99.90;;;;;;5071385;28;20914;-70
2024/02/14 06:16:05;;;;;;;1.10;1.00;;;9.80;99.90;;;;;;5071310;28;20424;-70
2024/02/14 06:18:31;;;;;;;1.40;1.03;;;9.80;99.90;;;;;;5071350;28;20173;-70
2024/02/14 06:20:56;;;;;;;2.50;1.00;;;9.70;99.90;;;;;;5071046;28;20251;-70
2024/02/14 06:23:22;;;;;;;1.73;0.87;;;9.70;99.90;;;;;;5071505;28;20198;-70
2024/02/14 06:25:47;;;;;;;1.17;0.83;;;9.60;99.90;;;;;;5071151;28;20607;-70
2024/02/14 06:28:12;;;;;;;1.20;1.00;;;9.70;99.90;;;;;;5068488;28;20175;-70
2024/02/14 06:30:38;;;;;;;1.23;0.93;;;9.70;99.90;;;;;;5054203;28;20186;-70
2024/02/14 06:33:04;;;;;;;1.23;1.13;;;9.70;99.90;;;;;;5071005;28;20220;-71
2024/02/14 06:35:30;;;;;;;1.07;0.97;;;9.80;99.90;;;;;;5071123;28;20175;-70
2024/02/14 06:37:55;;;;;;;0.90;0.80;;;9.80;99.90;;;;;;5074574;28;20202;-70
2024/02/14 06:40:21;;;;;;;2.40;1.33;;;9.90;99.90;;;;;;5074234;28;20491;-70
2024/02/14 06:42:50;;;;;;;1.10;0.90;;;9.90;99.90;;;;;;5073088;28;20185;-70
2024/02/14 06:45:17;;;;;;;1.20;1.00;;;9.90;99.90;;;;;;5074378;28;20412;-70
2024/02/14 06:47:42;;;;;;;1.47;0.83;;;9.90;99.90;;;;;;5074221;28;20433;-70
2024/02/14 06:50:08;;;;;;;1.30;0.97;;;9.90;99.90;;;;;;5074190;28;20829;-70
2024/02/14 06:52:34;;;;;;;1.13;0.80;;;9.90;99.90;;;;;;5072974;28;20669;-70
2024/02/14 06:54:59;;;;;;;1.17;1.00;;;9.90;99.90;;;;;;5074467;28;20397;-70
2024/02/14 06:57:25;;;;;;;0.80;0.77;;;10.00;99.90;;;;;;5074421;28;20186;-70
2024/02/14 06:59:51;;;;;;;0.90;0.80;;;10.00;99.90;;;;;;5074307;28;20162;-70
2024/02/14 07:02:17;;;;;;;1.43;0.70;;;10.00;99.90;;;;;;5070672;28;20435;-70
2024/02/14 07:04:42;;;;;;;1.50;0.90;;;10.00;99.90;;;;;;5074099;28;20540;-70
2024/02/14 07:07:08;;;;;;;0.83;0.70;;;10.10;99.90;;;;;;5074063;28;20194;-70
2024/02/14 07:09:35;;;;;;;0.80;0.70;;;10.10;99.90;;;;;;5073837;28;20212;-71
2024/02/14 07:12:01;;;;;;;2.73;0.80;;;10.20;99.90;;;;;;5074078;28;20178;-70
2024/02/14 07:14:28;;;;;;;4.10;1.03;;;10.20;99.90;;;;;;5074141;28;20479;-70
2024/02/14 07:16:53;;;;;;;0.80;0.70;;;10.20;99.90;;;;;;5074050;28;20834;-70
2024/02/14 07:19:19;;;;;;;0.80;0.60;;;10.30;99.90;;;;;;5073651;28;20408;-70
2024/02/14 07:21:44;;;;;;;0.80;0.70;;;10.30;99.90;;;;;;5074001;28;20170;-70
2024/02/14 07:24:10;;;;;;;1.47;0.80;;;10.30;99.90;;;;;;5073860;28;20228;-70
2024/02/14 07:26:36;;;;;;;0.80;0.60;;;10.40;99.90;;;;;;5073818;28;20186;-70
2024/02/14 07:29:03;;;;;;;1.27;0.70;;;10.40;99.90;;;;;;5073579;28;20166;-70
2024/02/14 07:31:34;;;;;;;0.80;0.70;;;10.40;99.90;;;;;;5073679;28;20189;-70
2024/02/14 07:34:00;;;;;;;1.47;0.70;;;10.40;99.90;;;;;;5071394;28;20424;-67
2024/02/14 07:36:26;;;;;;;1.10;0.80;;;10.40;99.90;;;;;;5055881;28;20425;-67
2024/02/14 07:38:51;;;;;;;0.80;0.73;;;10.50;99.90;;;;;;5071986;28;20461;-67
2024/02/14 07:41:17;;;;;;;0.80;0.70;;;10.50;99.90;;;;;;5073262;28;20182;-67
2024/02/14 07:43:42;;;;;;;1.87;0.80;;;10.60;99.90;;;;;;5073570;28;20181;-67
2024/02/14 07:46:08;;;;;;;1.27;0.80;;;10.60;99.90;;;;;;5073403;28;20594;-67
2024/02/14 07:48:33;;;;;;;1.20;0.70;;;10.70;99.90;;;;;;5072603;28;20170;-67
2024/02/14 07:50:59;;;;;;;2.90;0.80;;;10.80;99.90;;;;;;5073176;28;20253;-67
2024/02/14 07:53:25;;;;;;;2.20;1.40;;;10.80;99.90;;;;;;5073320;28;20671;-67
2024/02/14 07:55:52;;;;;;;3.90;1.23;;;10.80;99.90;;;;;;5073668;28;20183;-67
2024/02/14 07:58:18;;;;;;;1.43;0.93;;;10.80;99.90;;;;;;5074016;28;20837;-67
2024/02/14 08:00:43;;;;;;;3.33;1.13;;;10.90;99.90;;;;;;5069479;28;20500;-67
2024/02/14 08:03:09;;;;;;;1.10;0.80;;;10.90;99.90;;;;;;5067991;28;20212;-67
2024/02/14 08:05:34;;;;;;;1.00;0.90;;;10.90;99.90;;;;;;5072980;28;20186;-67
2024/02/14 08:08:00;;;;;;;1.03;0.70;;;10.90;99.90;;;;;;5072920;28;20533;-67
2024/02/14 08:10:25;;;;;;;1.37;0.80;;;11.00;99.90;;;;;;5072773;28;20181;-67
2024/02/14 08:12:51;;;;;;;1.47;1.03;;;11.10;99.90;;;;;;5072872;28;20194;-67
2024/02/14 08:15:16;;;;;;;0.90;0.80;;;11.00;99.90;;;;;;5072942;28;20166;-67
2024/02/14 08:17:42;;;;;;;2.20;0.90;;;11.10;99.90;;;;;;5072877;28;20182;-67
2024/02/14 08:20:08;;;;;;;1.00;0.80;;;11.10;99.90;;;;;;5072640;28;20162;-67
2024/02/14 08:22:33;;;;;;;1.20;1.10;;;11.20;99.90;;;;;;5072770;28;20664;-67
2024/02/14 08:25:00;;;;;;;1.70;0.70;;;11.10;99.90;;;;;;5072747;28;20170;-67
2024/02/14 08:27:26;;;;;;;0.90;0.70;;;11.20;99.90;;;;;;5072685;28;20277;-67
2024/02/14 08:29:51;;;;;;;0.90;0.60;;;11.20;99.90;;;;;;5072306;28;20760;-67
2024/02/14 08:32:17;;;;;;;2.10;0.80;;;11.10;99.90;;;;;;5072466;28;20440;-67
2024/02/14 08:34:43;;;;;;;1.93;1.33;;;11.20;99.90;;;;;;5072769;28;20166;-67
2024/02/14 08:37:08;;;;;;;3.87;1.70;;;11.20;99.90;;;;;;5072575;28;20186;-67
2024/02/14 08:39:34;;;;;;;2.27;0.90;;;11.40;99.90;;;;;;5072257;28;20169;-69
2024/02/14 08:42:03;;;;;;;1.03;0.93;;;11.50;99.90;;;;;;5071059;28;20535;-69
2024/02/14 08:44:28;;;;;;;1.03;0.80;;;11.60;99.90;;;;;;5067124;28;20185;-69
2024/02/14 08:46:54;;;;;;;2.97;0.70;;;11.80;99.90;;;;;;5072239;28;20482;-69
2024/02/14 08:49:20;;;;;;;1.30;0.80;;;11.90;99.90;;;;;;5072037;28;20170;-68
2024/02/14 08:51:47;;;;;;;1.13;0.90;;;12.00;99.90;;;;;;5071933;28;20444;-68
2024/02/14 08:54:15;;;;;;;1.47;0.70;;;12.20;99.90;;;;;;5072276;28;20158;-68
2024/02/14 08:56:41;;;;;;;1.20;0.90;;;12.60;99.90;;;;;;5070947;28;20456;-68
2024/02/14 08:59:07;;;;;;;1.10;0.90;;;12.80;99.90;;;;;;5071770;28;20934;-68
2024/02/14 09:01:32;;;;;;;3.43;0.77;;;12.90;99.90;;;;;;5070873;28;20181;-69
2024/02/14 09:03:58;;;;;;;0.90;0.77;;;13.00;99.90;;;;;;5072277;28;20691;-69
2024/02/14 09:06:26;;;;;;;1.50;0.90;;;13.30;99.90;;;;;;5072013;28;20189;-69
2024/02/14 09:08:52;;;;;;;1.70;1.23;;;13.80;99.90;;;;;;5072016;28;20779;-68
2024/02/14 09:11:17;;;;;;;2.70;1.03;;;14.60;99.90;;;;;;5071620;28;20477;-68
2024/02/14 09:13:43;;;;;;;1.83;1.10;;;14.90;99.90;;;;;;5070574;28;20504;-68
2024/02/14 09:16:10;;;;;;;2.37;0.90;;;15.20;99.90;;;;;;5071752;28;20265;-69
2024/02/14 09:18:37;;;;;;;2.50;1.90;;;15.60;99.90;;;;;;5071852;28;20235;-68
2024/02/14 09:21:05;;;;;;;1.53;1.30;;;15.50;99.90;;;;;;5071675;28;20759;-69
2024/02/14 09:23:32;;;;;;;1.87;1.60;;;15.50;99.90;;;;;;5070453;28;20416;-68
2024/02/14 09:25:58;;;;;;;2.10;0.90;;;15.60;99.90;;;;;;5071734;28;20417;-68
2024/02/14 09:28:23;;;;;;;2.20;1.00;;;15.90;99.90;;;;;;5071984;28;20958;-66
2024/02/14 09:30:49;;;;;;;1.13;0.97;;;16.00;99.90;;;;;;5071452;28;20922;-69
2024/02/14 09:33:14;;;;;;;1.37;0.80;;;15.90;99.90;;;;;;5071719;28;20562;-67
2024/02/14 09:35:44;;;;;;;1.10;0.80;;;15.30;99.90;;;;;;5070544;28;20220;-66
2024/02/14 09:38:12;;;;;;;1.53;0.83;;;15.10;99.90;;;;;;5071676;28;20261;-66
2024/02/14 09:40:38;;;;;;;1.00;0.70;;;14.70;99.90;;;;;;5071404;28;20423;-67
2024/02/14 09:43:07;;;;;;;1.47;0.80;;;14.50;99.90;;;;;;5070326;28;20818;-67
2024/02/14 09:45:33;;;;;;;0.90;0.80;;;14.30;99.90;;;;;;5071555;28;20405;-67
2024/02/14 09:47:59;;;;;;;1.30;0.77;;;14.00;99.90;;;;;;5071596;28;20504;-67
2024/02/14 09:50:30;;;;;;;0.90;0.80;;;14.00;99.90;;;;;;5071265;28;20502;-66
2024/02/14 09:52:56;;;;;;;0.90;0.80;;;13.90;99.90;;;;;;5071344;28;20194;-66
2024/02/14 09:55:24;;;;;;;1.77;1.10;;;13.90;99.90;;;;;;5071466;28;20396;-66
2024/02/14 09:57:50;;;;;;;1.30;1.10;;;13.90;99.90;;;;;;5070188;28;20436;-66
2024/02/14 10:00:16;;;;;;;2.40;0.80;;;13.70;99.90;;;;;;5071406;28;20428;-69
2024/02/14 10:02:41;;;;;;;1.20;0.90;;;13.60;99.90;;;;;;5071459;28;20470;-67
2024/02/14 10:05:08;;;;;;;2.00;0.80;;;13.60;99.90;;;;;;5070180;28;20514;-67
2024/02/14 10:07:42;;;;;;;2.60;0.70;;;13.40;99.90;;;;;;5071370;28;20599;-67
2024/02/14 10:10:08;;;;;;;2.30;0.87;;;13.30;99.90;;;;;;5071155;28;20776;-67
2024/02/14 10:12:33;;;;;;;0.80;0.60;;;13.10;99.90;;;;;;5075071;28;20530;-67
2024/02/14 10:14:59;;;;;;;1.30;0.80;;;13.30;99.90;;;;;;5075284;28;20162;-67
2024/02/14 10:17:26;;;;;;;1.00;0.80;;;13.30;99.90;;;;;;5075336;28;20197;-67
2024/02/14 10:20:08;;;;;;;4.80;1.00;;;13.20;99.90;;;;;;5074865;28;20158;-67
2024/02/14 10:22:37;;;;;;;0.90;0.70;;;13.20;99.90;;;;;;5075054;28;20471;-67
2024/02/14 10:25:06;;;;;;;5.63;1.03;;;13.20;99.90;;;;;;5075094;28;20556;-67
2024/02/14 10:27:32;;;;;;;0.90;0.70;;;13.30;99.90;;;;;;5075058;28;20442;-67
2024/02/14 10:29:58;;;;;;;2.97;1.10;;;13.30;99.90;;;;;;5074727;28;20404;-67
2024/02/14 10:32:24;;;;;;;0.80;0.70;;;13.30;99.90;;;;;;5074829;28;20202;-67
2024/02/14 10:34:50;;;;;;;1.60;0.80;;;13.30;99.90;;;;;;5073514;28;20457;-68
2024/02/14 10:37:18;;;;;;;1.30;0.80;;;13.40;99.90;;;;;;5074762;28;20213;-67
2024/02/14 10:39:46;;;;;;;1.57;1.07;;;13.60;99.90;;;;;;5074512;28;20246;-67
2024/02/14 10:42:12;;;;;;;3.73;1.00;;;13.80;99.90;;;;;;5073398;28;20790;-67
2024/02/14 10:44:38;;;;;;;1.10;0.93;;;13.90;99.90;;;;;;5074666;28;20444;-67
2024/02/14 10:47:07;;;;;;;2.40;0.90;;;13.90;99.90;;;;;;5073445;28;20440;-68
2024/02/14 10:49:35;;;;;;;1.30;1.20;;;13.90;99.90;;;;;;5074262;28;21044;-67
2024/02/14 10:52:04;;;;;;;5.20;0.87;;;13.90;99.90;;;;;;5074487;28;20589;-66
2024/02/14 10:54:30;;;;;;;1.30;0.80;;;13.80;99.90;;;;;;5074712;28;20397;-67
2024/02/14 10:57:02;;;;;;;3.00;1.00;;;13.80;99.90;;;;;;5074352;28;20416;-68
2024/02/14 10:59:28;;;;;;;1.20;1.10;;;13.80;99.90;;;;;;5074231;28;20640;-67
2024/02/14 11:01:54;;;;;;;1.23;0.90;;;13.70;99.90;;;;;;5074428;28;20644;-67
2024/02/14 11:04:20;;;;;;;3.20;0.90;;;13.70;99.90;;;;;;5074294;28;20400;-67
2024/02/14 11:06:57;;;;;;;2.00;1.03;;;13.80;99.90;;;;;;5073076;28;20485;-68
2024/02/14 11:09:32;;;;;;;1.60;1.10;;;13.80;99.90;;;;;;5068878;28;20854;-67
2024/02/14 11:12:02;;;;;;;4.73;1.20;;;13.80;99.90;;;;;;5072475;28;20545;-68
2024/02/14 11:14:35;;;;;;;1.67;1.40;;;13.70;99.90;;;;;;5062236;28;20416;-67
2024/02/14 11:17:04;;;;;;;1.67;1.07;;;13.80;99.90;;;;;;5073805;28;20476;-67
2024/02/14 11:19:35;;;;;;;0.97;0.80;;;14.10;99.90;;;;;;5066922;28;20412;-67
2024/02/14 11:22:11;;;;;;;1.03;0.80;;;14.40;99.90;;;;;;5071271;28;20846;-67
2024/02/14 11:24:37;;;;;;;1.50;1.03;;;14.90;99.90;;;;;;5071408;28;20780;-67
2024/02/14 11:27:02;;;;;;;3.10;0.90;;;15.10;99.90;;;;;;5058942;28;20441;-68
2024/02/14 11:29:31;;;;;;;1.30;0.97;;;14.80;99.90;;;;;;5054950;28;20588;-67
2024/02/14 11:32:01;;;;;;;1.47;0.83;;;14.60;99.90;;;;;;5063269;28;20625;-67
2024/02/14 11:34:28;;;;;;;1.73;0.90;;;14.70;99.90;;;;;;5065306;28;20480;-67
2024/02/14 11:36:53;;;;;;;1.10;0.70;;;14.80;99.90;;;;;;5065360;28;20426;-67
2024/02/14 11:39:20;;;;;;;1.43;1.00;;;14.80;99.90;;;;;;5073366;28;20987;-68
2024/02/14 11:41:46;;;;;;;3.37;0.70;;;15.00;99.90;;;;;;5073559;28;20175;-67
2024/02/14 11:44:11;;;;;;;0.87;0.77;;;15.00;99.90;;;;;;5073753;28;20462;-67
2024/02/14 11:46:38;;;;;;;1.00;0.87;;;14.90;99.90;;;;;;5073587;28;20182;-67
2024/02/14 11:49:05;;;;;;;2.00;0.80;;;14.70;99.90;;;;;;5073291;28;20170;-68
2024/02/14 11:51:32;;;;;;;0.90;0.60;;;14.70;99.90;;;;;;5073360;28;20448;-67
2024/02/14 11:54:06;;;;;;;1.67;0.80;;;14.60;99.90;;;;;;5073450;28;20407;-67
2024/02/14 11:56:36;;;;;;;1.27;0.70;;;14.40;99.90;;;;;;5073417;28;20435;-68
2024/02/14 11:59:02;;;;;;;1.00;0.77;;;14.30;99.90;;;;;;5072094;28;20408;-67
2024/02/14 12:01:30;;;;;;;1.50;0.90;;;14.30;99.90;;;;;;5073365;28;20407;-67
2024/02/14 12:03:57;;;;;;;0.80;0.70;;;14.20;99.90;;;;;;5073248;28;20491;-67
2024/02/14 12:06:23;;;;;;;0.80;0.50;;;14.20;99.90;;;;;;5067813;28;20441;-67
2024/02/14 12:08:49;;;;;;;1.10;0.67;;;14.30;99.90;;;;;;5062331;28;20528;-67
2024/02/14 12:11:15;;;;;;;1.83;0.60;;;14.30;99.90;;;;;;5059865;28;20432;-67
2024/02/14 12:13:43;;;;;;;1.10;1.00;;;14.20;99.90;;;;;;5059400;28;20428;-68
2024/02/14 12:16:10;;;;;;;1.10;0.73;;;14.20;99.90;;;;;;5063295;28;20680;-67
2024/02/14 12:18:35;;;;;;;1.20;0.73;;;14.20;99.90;;;;;;5060772;28;21063;-68
2024/02/14 12:21:08;;;;;;;1.23;0.80;;;14.20;99.90;;;;;;5055989;28;20508;-68
2024/02/14 12:23:33;;;;;;;3.30;0.70;;;14.20;99.90;;;;;;5061068;28;20177;-69
2024/02/14 12:26:02;;;;;;;0.90;0.70;;;14.20;99.90;;;;;;5058324;28;20445;-68
2024/02/14 12:28:32;;;;;;;1.40;0.70;;;14.40;99.90;;;;;;5063908;28;20209;-67
2024/02/14 12:30:58;;;;;;;0.90;0.70;;;14.70;99.90;;;;;;5066309;28;20464;-68
2024/02/14 12:33:27;;;;;;;0.80;0.60;;;14.90;99.90;;;;;;5062929;28;20408;-68
2024/02/14 12:35:54;;;;;;;1.00;0.70;;;15.00;99.90;;;;;;5058268;28;20198;-68
2024/02/14 12:38:21;;;;;;;0.80;0.63;;;15.00;99.90;;;;;;5066785;28;20947;-68
2024/02/14 12:40:46;;;;;;;1.10;0.90;;;14.80;99.90;;;;;;5065879;28;20416;-67
2024/02/14 12:43:13;;;;;;;4.00;0.80;;;14.70;99.90;;;;;;5072154;28;20409;-67
2024/02/14 12:45:40;;;;;;;0.90;0.80;;;14.80;99.90;;;;;;5072314;28;20528;-67